Time;durP1;ratioP1;P1;durP2;ratioP2;P2;SDS_P1;SDS_P2;PMS_P1;PMS_P2;Temp;Humidity;BMP_temperature;BMP_pressure;BME280_temperature;BME280_humidity;BME280_pressure;Samples;Min_cycle;Max_cycle;Signal;HPM_P1;HPM_P2
2021/05/01 00:01:08;;;;;;;32.78;21.58;;;10.30;99.90;;;;;;5056222;28;20032;-72
2021/05/01 00:03:34;;;;;;;33.25;20.83;;;10.30;99.90;;;;;;5055776;28;20033;-71
2021/05/01 00:06:00;;;;;;;27.85;20.95;;;10.20;99.90;;;;;;5059496;28;20075;-72
2021/05/01 00:08:29;;;;;;;30.67;20.73;;;10.00;99.90;;;;;;5057659;28;20036;-73
2021/05/01 00:10:57;;;;;;;30.80;21.25;;;9.90;99.90;;;;;;5054510;28;20032;-72
2021/05/01 00:13:23;;;;;;;34.97;21.85;;;9.80;99.90;;;;;;5061315;28;20028;-73
2021/05/01 00:15:49;;;;;;;34.10;22.40;;;9.80;99.90;;;;;;5063819;28;20117;-73
2021/05/01 00:18:15;;;;;;;34.15;22.67;;;9.70;99.90;;;;;;5048953;28;20104;-72
2021/05/01 00:20:41;;;;;;;31.13;21.45;;;9.70;99.90;;;;;;5065635;28;20021;-73
2021/05/01 00:23:06;;;;;;;32.47;23.75;;;9.70;99.90;;;;;;5061863;28;20086;-75
2021/05/01 00:25:33;;;;;;;35.65;23.90;;;9.60;99.90;;;;;;5066917;28;20032;-72
2021/05/01 00:27:59;;;;;;;32.22;23.73;;;9.50;99.90;;;;;;5069824;28;20078;-73
2021/05/01 00:30:25;;;;;;;34.80;23.95;;;9.40;99.90;;;;;;5067954;28;20481;-73
2021/05/01 00:32:50;;;;;;;35.90;23.67;;;9.40;99.90;;;;;;5064641;28;20021;-72
2021/05/01 00:35:16;;;;;;;46.33;23.42;;;9.40;99.90;;;;;;5061431;28;20730;-71
2021/05/01 00:37:42;;;;;;;35.53;25.13;;;9.40;99.90;;;;;;5065446;28;20052;-71
2021/05/01 00:40:08;;;;;;;40.30;25.63;;;9.30;99.90;;;;;;5068645;28;20040;-72
2021/05/01 00:42:35;;;;;;;33.55;23.55;;;9.30;99.90;;;;;;5067535;28;20075;-71
2021/05/01 00:45:01;;;;;;;31.08;23.55;;;9.30;99.90;;;;;;5063701;28;20046;-72
2021/05/01 00:47:27;;;;;;;37.30;24.23;;;9.10;99.90;;;;;;5063501;28;20132;-73
2021/05/01 00:49:53;;;;;;;36.90;25.77;;;9.10;99.90;;;;;;5068054;28;20120;-73
2021/05/01 00:52:18;;;;;;;38.13;26.75;;;9.10;99.90;;;;;;5051903;28;20016;-72
2021/05/01 00:54:44;;;;;;;35.47;25.55;;;9.10;99.90;;;;;;5066366;28;20040;-72
2021/05/01 00:57:11;;;;;;;36.42;26.23;;;9.00;99.90;;;;;;5070059;28;20028;-72
2021/05/01 00:59:37;;;;;;;44.92;26.23;;;8.90;99.90;;;;;;5066584;28;20144;-73
2021/05/01 01:02:03;;;;;;;40.53;27.23;;;8.90;99.90;;;;;;5067503;28;20032;-72
2021/05/01 01:04:28;;;;;;;35.88;24.58;;;9.00;99.90;;;;;;5064561;28;20044;-71
2021/05/01 01:06:54;;;;;;;40.92;27.23;;;8.90;99.90;;;;;;5065757;28;20366;-71
2021/05/01 01:09:20;;;;;;;39.33;27.77;;;8.90;99.90;;;;;;5065497;28;20093;-69
2021/05/01 01:11:46;;;;;;;39.67;27.42;;;8.80;99.90;;;;;;5063846;28;20028;-70
2021/05/01 01:14:15;;;;;;;41.10;29.48;;;8.80;99.90;;;;;;5070345;28;20024;-70
2021/05/01 01:16:44;;;;;;;40.78;28.25;;;8.80;99.90;;;;;;5065653;28;20032;-70
2021/05/01 01:19:11;;;;;;;44.45;27.58;;;8.80;99.90;;;;;;5063138;28;20031;-70
2021/05/01 01:21:41;;;;;;;38.30;27.38;;;8.70;99.90;;;;;;5063701;28;20025;-70
2021/05/01 01:24:07;;;;;;;41.15;26.75;;;8.70;99.90;;;;;;5075796;28;20857;-70
2021/05/01 01:26:37;;;;;;;39.50;26.45;;;8.70;99.90;;;;;;5064139;28;20494;-70
2021/05/01 01:29:04;;;;;;;42.00;27.83;;;8.70;99.90;;;;;;5062506;28;20029;-70
2021/05/01 01:31:30;;;;;;;46.88;30.10;;;8.70;99.90;;;;;;5063763;28;20428;-70
2021/05/01 01:33:55;;;;;;;45.38;30.17;;;8.60;99.90;;;;;;5062341;28;20138;-70
2021/05/01 01:36:21;;;;;;;43.60;30.00;;;8.60;99.90;;;;;;5049738;28;20111;-70
2021/05/01 01:38:47;;;;;;;44.50;30.88;;;8.50;99.90;;;;;;5062517;28;20040;-70
2021/05/01 01:41:12;;;;;;;49.58;32.75;;;8.60;99.90;;;;;;5068244;28;20038;-70
2021/05/01 01:43:38;;;;;;;49.58;31.73;;;8.60;99.90;;;;;;5065492;28;20044;-69
2021/05/01 01:46:04;;;;;;;46.95;32.08;;;8.50;99.90;;;;;;5055430;28;20382;-69
2021/05/01 01:48:31;;;;;;;47.30;32.28;;;8.60;99.90;;;;;;5066590;28;20028;-70
2021/05/01 01:50:57;;;;;;;49.60;33.38;;;8.60;99.90;;;;;;5069412;28;20033;-69
2021/05/01 01:53:23;;;;;;;46.85;31.60;;;8.50;99.90;;;;;;5066744;28;20074;-70
2021/05/01 01:55:50;;;;;;;51.75;33.13;;;8.60;99.90;;;;;;5066264;28;20184;-70
2021/05/01 01:58:20;;;;;;;52.00;35.90;;;8.60;99.90;;;;;;5068466;28;20100;-70
2021/05/01 02:00:46;;;;;;;48.70;34.00;;;8.50;99.90;;;;;;5049877;28;20028;-70
2021/05/01 02:03:14;;;;;;;63.00;35.28;;;8.50;99.90;;;;;;5061630;28;20025;-69
2021/05/01 02:05:43;;;;;;;47.50;32.28;;;8.40;99.90;;;;;;5047993;28;20029;-70
2021/05/01 02:08:09;;;;;;;50.78;34.47;;;8.30;99.90;;;;;;5070141;28;20288;-70
2021/05/01 02:10:35;;;;;;;49.83;34.00;;;8.20;99.90;;;;;;5064055;28;20037;-69
2021/05/01 02:13:01;;;;;;;56.00;36.05;;;8.10;99.90;;;;;;5067398;28;20554;-70
2021/05/01 02:15:27;;;;;;;43.90;32.38;;;8.10;99.90;;;;;;5072624;28;20025;-70
2021/05/01 02:17:54;;;;;;;52.70;35.67;;;8.10;99.90;;;;;;5068692;28;20385;-70
2021/05/01 02:20:26;;;;;;;48.28;34.97;;;8.10;99.90;;;;;;5067239;28;20169;-69
2021/05/01 02:22:52;;;;;;;52.55;35.30;;;8.10;99.90;;;;;;5067032;28;20044;-70
2021/05/01 02:25:18;;;;;;;57.72;35.63;;;8.10;99.90;;;;;;5062192;28;20019;-70
2021/05/01 02:27:44;;;;;;;58.33;35.85;;;8.10;99.90;;;;;;5057328;28;20031;-70
2021/05/01 02:30:19;;;;;;;52.92;35.10;;;8.10;99.90;;;;;;5071528;28;20032;-70
2021/05/01 02:32:46;;;;;;;49.70;33.47;;;8.00;99.90;;;;;;5066360;28;20112;-70
2021/05/01 02:35:15;;;;;;;57.10;37.20;;;8.10;99.90;;;;;;5056977;28;20151;-69
2021/05/01 02:37:41;;;;;;;59.30;39.13;;;8.00;99.90;;;;;;5063658;28;20039;-70
2021/05/01 02:40:09;;;;;;;53.45;35.03;;;8.00;99.90;;;;;;5063228;28;20037;-70
2021/05/01 02:42:34;;;;;;;51.15;34.80;;;8.00;99.90;;;;;;5064824;28;20043;-70
2021/05/01 02:45:00;;;;;;;61.65;38.60;;;8.00;99.90;;;;;;5067771;28;20025;-72
2021/05/01 02:47:26;;;;;;;59.10;37.35;;;8.00;99.90;;;;;;5063697;28;20029;-70
2021/05/01 02:49:52;;;;;;;59.03;38.83;;;8.00;99.90;;;;;;5061583;28;20021;-70
2021/05/01 02:52:18;;;;;;;60.40;35.92;;;7.90;99.90;;;;;;5051041;28;20028;-70
2021/05/01 02:54:43;;;;;;;58.63;36.03;;;7.80;99.90;;;;;;5067631;28;20029;-70
2021/05/01 02:57:09;;;;;;;58.60;37.72;;;7.80;99.90;;;;;;5061340;28;20031;-70
2021/05/01 02:59:34;;;;;;;61.95;37.38;;;7.80;99.90;;;;;;5061863;28;20040;-70
2021/05/01 03:02:00;;;;;;;55.85;37.40;;;7.80;99.90;;;;;;5065086;28;20041;-70
2021/05/01 03:04:26;;;;;;;56.38;35.55;;;7.90;99.90;;;;;;5067559;28;20013;-71
2021/05/01 03:06:52;;;;;;;55.67;34.90;;;7.80;99.90;;;;;;5063100;28;20036;-70
2021/05/01 03:09:17;;;;;;;52.40;36.10;;;7.80;99.90;;;;;;5068656;28;20469;-72
2021/05/01 03:11:43;;;;;;;53.85;35.58;;;7.90;99.90;;;;;;5086085;28;20046;-70
2021/05/01 03:14:09;;;;;;;60.42;36.28;;;7.70;99.90;;;;;;5062080;28;20035;-72
2021/05/01 03:16:34;;;;;;;57.40;36.38;;;7.60;99.90;;;;;;5066086;28;20036;-70
2021/05/01 03:19:00;;;;;;;48.95;36.28;;;7.50;99.90;;;;;;5063522;28;20085;-71
2021/05/01 03:21:25;;;;;;;53.38;35.15;;;7.50;99.90;;;;;;5062806;28;20032;-73
2021/05/01 03:23:53;;;;;;;56.95;36.30;;;7.50;99.90;;;;;;5064565;28;20036;-71
2021/05/01 03:26:20;;;;;;;56.80;35.42;;;7.50;99.90;;;;;;5065405;28;20017;-71
2021/05/01 03:28:46;;;;;;;59.00;36.20;;;7.50;99.90;;;;;;5063945;28;20088;-71
2021/05/01 03:31:11;;;;;;;53.22;33.13;;;7.50;99.90;;;;;;5065896;28;20050;-72
2021/05/01 03:33:37;;;;;;;59.65;36.97;;;7.50;99.90;;;;;;5042072;28;20115;-70
2021/05/01 03:36:04;;;;;;;54.55;35.42;;;7.50;99.90;;;;;;5065134;28;20021;-71
2021/05/01 03:38:31;;;;;;;57.20;34.97;;;7.50;99.90;;;;;;5066159;28;20040;-70
2021/05/01 03:40:56;;;;;;;53.22;35.35;;;7.50;99.90;;;;;;5065203;28;20147;-70
2021/05/01 03:43:22;;;;;;;53.88;34.60;;;7.40;99.90;;;;;;5062398;28;20056;-70
2021/05/01 03:45:48;;;;;;;54.67;34.83;;;7.40;99.90;;;;;;5066705;28;20024;-72
2021/05/01 03:48:14;;;;;;;55.08;33.67;;;7.40;99.90;;;;;;5073234;28;20433;-70
2021/05/01 03:50:39;;;;;;;53.45;36.05;;;7.30;99.90;;;;;;5057198;28;20106;-69
2021/05/01 03:53:05;;;;;;;56.88;35.72;;;7.30;99.90;;;;;;5066292;28;20032;-70
2021/05/01 03:55:31;;;;;;;54.08;33.60;;;7.30;99.90;;;;;;5062357;28;20052;-69
2021/05/01 03:57:57;;;;;;;49.85;33.45;;;7.30;99.90;;;;;;5059138;28;20389;-70
2021/05/01 04:00:23;;;;;;;59.67;35.25;;;7.30;99.90;;;;;;5061668;28;20021;-70
2021/05/01 04:02:49;;;;;;;50.00;33.20;;;7.20;99.90;;;;;;5061484;28;20083;-70
2021/05/01 04:05:15;;;;;;;52.63;34.10;;;7.20;99.90;;;;;;5057423;28;20020;-69
2021/05/01 04:07:41;;;;;;;56.63;36.95;;;7.20;99.90;;;;;;5072944;28;20033;-70
2021/05/01 04:10:08;;;;;;;57.45;36.72;;;7.20;99.90;;;;;;5064376;28;20029;-69
2021/05/01 04:12:33;;;;;;;60.28;36.30;;;7.20;99.90;;;;;;5057261;28;20051;-69
2021/05/01 04:14:59;;;;;;;60.67;37.63;;;7.10;99.90;;;;;;5060178;28;20536;-69
2021/05/01 04:17:25;;;;;;;54.45;33.85;;;7.10;99.90;;;;;;5062867;28;20414;-70
2021/05/01 04:19:50;;;;;;;49.58;33.00;;;7.00;99.90;;;;;;5060940;28;20070;-69
2021/05/01 04:22:20;;;;;;;55.72;38.22;;;7.00;99.90;;;;;;5061878;28;20041;-69
2021/05/01 04:24:46;;;;;;;55.17;33.50;;;7.00;99.90;;;;;;5071540;28;20017;-69
2021/05/01 04:27:11;;;;;;;54.53;36.15;;;6.90;99.90;;;;;;5061389;28;20031;-69
2021/05/01 04:29:37;;;;;;;54.75;37.25;;;6.90;99.90;;;;;;5044556;28;20477;-70
2021/05/01 04:32:03;;;;;;;56.17;35.70;;;6.90;99.90;;;;;;5060095;28;20075;-69
2021/05/01 04:34:29;;;;;;;57.20;36.70;;;6.90;99.90;;;;;;5068918;28;20523;-69
2021/05/01 04:36:54;;;;;;;57.10;34.45;;;6.90;99.90;;;;;;5058079;28;20444;-69
2021/05/01 04:39:20;;;;;;;54.35;35.70;;;6.90;99.90;;;;;;5066056;28;20037;-69
2021/05/01 04:41:47;;;;;;;55.83;36.03;;;6.80;99.90;;;;;;5059530;28;20048;-69
2021/05/01 04:44:12;;;;;;;58.45;35.58;;;6.80;99.90;;;;;;5046407;28;20426;-70
2021/05/01 04:46:38;;;;;;;58.55;36.85;;;6.80;99.90;;;;;;5058667;28;20060;-71
2021/05/01 04:49:07;;;;;;;67.05;38.83;;;6.80;99.90;;;;;;5057879;28;20108;-70
2021/05/01 04:51:36;;;;;;;57.38;35.33;;;6.70;99.90;;;;;;5064024;28;20393;-70
2021/05/01 04:54:03;;;;;;;63.20;39.15;;;6.70;99.90;;;;;;5060977;28;20032;-71
2021/05/01 04:56:29;;;;;;;62.05;40.28;;;6.80;99.90;;;;;;5065221;28;20028;-71
2021/05/01 04:58:54;;;;;;;61.67;39.08;;;6.80;99.90;;;;;;5063573;28;20024;-72
2021/05/01 05:01:20;;;;;;;61.75;40.08;;;6.70;99.90;;;;;;5068428;28;20025;-70
2021/05/01 05:03:46;;;;;;;59.05;37.97;;;6.80;99.90;;;;;;5066416;28;20036;-70
2021/05/01 05:06:12;;;;;;;61.08;35.60;;;6.70;99.90;;;;;;5049690;28;20024;-73
2021/05/01 05:08:37;;;;;;;54.30;33.85;;;6.80;99.90;;;;;;5065981;28;20037;-71
2021/05/01 05:11:03;;;;;;;55.42;33.80;;;6.70;99.90;;;;;;5068349;28;20021;-70
2021/05/01 05:13:29;;;;;;;53.92;36.22;;;6.70;99.90;;;;;;5064506;28;20021;-71
2021/05/01 05:15:54;;;;;;;56.53;35.92;;;6.70;99.90;;;;;;5070892;28;20021;-71
2021/05/01 05:18:20;;;;;;;60.47;36.53;;;6.80;99.90;;;;;;5071052;28;20379;-70
2021/05/01 05:20:46;;;;;;;60.08;39.25;;;6.90;99.90;;;;;;5056023;28;20040;-71
2021/05/01 05:23:12;;;;;;;58.53;39.30;;;7.00;99.90;;;;;;5059939;28;20028;-69
2021/05/01 05:25:38;;;;;;;54.20;36.13;;;7.00;99.90;;;;;;5068455;28;20032;-71
2021/05/01 05:28:04;;;;;;;60.83;38.00;;;7.10;99.90;;;;;;5066799;28;20472;-70
2021/05/01 05:30:30;;;;;;;61.28;35.83;;;7.20;99.90;;;;;;5064823;28;20060;-70
2021/05/01 05:32:56;;;;;;;60.58;37.28;;;7.30;99.90;;;;;;5060056;28;20025;-70
2021/05/01 05:35:22;;;;;;;58.25;37.25;;;7.30;99.90;;;;;;5065912;28;20078;-70
2021/05/01 05:37:48;;;;;;;50.67;35.38;;;7.30;99.90;;;;;;5067223;28;20028;-72
2021/05/01 05:40:14;;;;;;;50.45;33.30;;;7.40;99.90;;;;;;5066519;28;20505;-70
2021/05/01 05:42:42;;;;;;;50.85;32.30;;;7.50;99.90;;;;;;5048620;28;20110;-70
2021/05/01 05:45:08;;;;;;;55.85;35.05;;;7.60;99.90;;;;;;5064212;28;20524;-71
2021/05/01 05:47:34;;;;;;;56.70;35.70;;;7.60;99.90;;;;;;5065291;28;20037;-70
2021/05/01 05:50:00;;;;;;;59.30;37.47;;;7.70;99.90;;;;;;5063340;28;20033;-72
2021/05/01 05:52:25;;;;;;;51.67;32.10;;;7.70;99.90;;;;;;5055260;28;20103;-72
2021/05/01 05:54:51;;;;;;;53.28;32.30;;;7.70;99.90;;;;;;5063567;28;20432;-70
2021/05/01 05:57:17;;;;;;;55.83;34.50;;;7.90;99.90;;;;;;5067521;28;20486;-70
2021/05/01 05:59:43;;;;;;;49.55;33.00;;;7.90;99.90;;;;;;5069542;28;20043;-70
2021/05/01 06:02:13;;;;;;;51.13;30.85;;;8.00;99.90;;;;;;5066070;28;20438;-70
2021/05/01 06:05:02;;;;;;;46.78;30.92;;;8.00;99.90;;;;;;5061071;28;20044;-70
2021/05/01 06:07:33;;;;;;;52.97;32.38;;;8.00;99.90;;;;;;5060601;28;20038;-70
2021/05/01 06:10:04;;;;;;;52.40;32.58;;;8.10;99.90;;;;;;5060490;28;20499;-70
2021/05/01 06:12:33;;;;;;;48.13;31.15;;;8.00;99.90;;;;;;5059603;28;20033;-70
2021/05/01 06:15:02;;;;;;;39.65;26.83;;;8.00;99.90;;;;;;5065512;28;20078;-70
2021/05/01 06:17:28;;;;;;;44.05;26.95;;;8.10;99.90;;;;;;5066434;28;20034;-70
2021/05/01 06:19:57;;;;;;;48.60;26.00;;;8.10;99.90;;;;;;5046953;28;20028;-71
2021/05/01 06:22:24;;;;;;;43.15;27.17;;;8.20;99.90;;;;;;5065583;28;20068;-70
2021/05/01 06:24:50;;;;;;;40.05;27.40;;;8.20;99.90;;;;;;5064652;28;20505;-70
2021/05/01 06:27:16;;;;;;;43.05;23.95;;;8.20;99.90;;;;;;5062822;28;20058;-69
2021/05/01 06:29:44;;;;;;;44.70;27.48;;;8.30;99.90;;;;;;5061381;28;20052;-70
2021/05/01 06:32:15;;;;;;;37.30;25.80;;;8.40;99.90;;;;;;5060617;28;20025;-70
2021/05/01 06:34:49;;;;;;;40.63;24.38;;;8.30;99.90;;;;;;5059602;28;20025;-70
2021/05/01 06:37:16;;;;;;;36.28;23.75;;;8.30;99.90;;;;;;5066817;28;20025;-70
2021/05/01 06:39:47;;;;;;;46.33;27.38;;;8.30;99.90;;;;;;5058811;28;20021;-70
2021/05/01 06:42:35;;;;;;;37.15;25.00;;;8.50;99.90;;;;;;5065251;28;20067;-70
2021/05/01 06:45:08;;;;;;;34.78;24.23;;;8.60;99.90;;;;;;5065560;28;20028;-70
2021/05/01 06:47:37;;;;;;;38.50;24.83;;;8.70;99.90;;;;;;5065551;28;20033;-70
2021/05/01 06:50:11;;;;;;;37.00;23.60;;;8.80;99.90;;;;;;5059197;28;20027;-70
2021/05/01 06:52:47;;;;;;;37.50;20.13;;;9.00;99.90;;;;;;5057882;28;20481;-70
2021/05/01 06:55:15;;;;;;;26.30;18.50;;;9.20;99.90;;;;;;5068176;28;20489;-70
2021/05/01 06:57:47;;;;;;;28.73;18.75;;;9.30;99.90;;;;;;5068210;28;20021;-70
2021/05/01 07:00:14;;;;;;;30.15;17.30;;;9.30;99.90;;;;;;5067464;28;20021;-70
2021/05/01 07:02:44;;;;;;;23.92;14.23;;;9.30;99.90;;;;;;5067727;28;20055;-70
2021/05/01 07:05:13;;;;;;;17.67;12.63;;;9.40;99.90;;;;;;5064236;28;20173;-71
2021/05/01 07:07:39;;;;;;;21.27;12.98;;;9.50;99.90;;;;;;5063003;28;20041;-71
2021/05/01 07:10:07;;;;;;;21.80;13.15;;;9.60;99.90;;;;;;5070663;28;20394;-71
2021/05/01 07:12:33;;;;;;;24.63;13.95;;;9.60;99.90;;;;;;5051761;28;20055;-70
2021/05/01 07:15:02;;;;;;;17.30;12.75;;;9.80;99.90;;;;;;5069887;28;20056;-70
2021/05/01 07:17:29;;;;;;;23.70;13.30;;;9.80;99.90;;;;;;5067492;28;20020;-70
2021/05/01 07:19:55;;;;;;;22.27;14.02;;;10.10;99.90;;;;;;5066451;28;20384;-71
2021/05/01 07:22:21;;;;;;;25.25;14.15;;;10.20;99.90;;;;;;5058251;28;20036;-71
2021/05/01 07:24:46;;;;;;;24.58;12.90;;;10.20;99.90;;;;;;5058904;28;20029;-71
2021/05/01 07:27:12;;;;;;;21.40;12.30;;;10.20;99.90;;;;;;5059205;28;20031;-71
2021/05/01 07:29:40;;;;;;;22.50;12.38;;;10.20;99.90;;;;;;5062127;28;20021;-71
2021/05/01 07:32:08;;;;;;;15.77;10.23;;;10.20;99.90;;;;;;5061978;28;20067;-71
2021/05/01 07:34:36;;;;;;;20.52;10.65;;;10.30;99.90;;;;;;5061865;28;20017;-71
2021/05/01 07:37:14;;;;;;;17.77;11.20;;;10.50;99.90;;;;;;5069475;28;20051;-70
2021/05/01 07:39:40;;;;;;;16.33;11.02;;;10.70;99.90;;;;;;5061055;28;20535;-71
2021/05/01 07:42:07;;;;;;;16.33;11.70;;;10.90;99.90;;;;;;5065895;28;20040;-71
2021/05/01 07:44:33;;;;;;;18.30;12.90;;;10.70;99.90;;;;;;5057191;28;20024;-71
2021/05/01 07:47:00;;;;;;;21.25;12.60;;;10.80;99.90;;;;;;5061924;28;20037;-70
2021/05/01 07:49:26;;;;;;;20.30;12.93;;;11.10;99.90;;;;;;5052188;28;20020;-70
2021/05/01 07:51:53;;;;;;;19.40;12.40;;;11.30;99.90;;;;;;5060930;28;20342;-70
2021/05/01 07:54:19;;;;;;;21.10;11.95;;;11.40;99.90;;;;;;5056486;28;20442;-71
2021/05/01 07:56:44;;;;;;;16.02;10.23;;;11.40;99.90;;;;;;5065939;28;20052;-70
2021/05/01 07:59:10;;;;;;;12.10;9.10;;;11.30;99.90;;;;;;5058590;28;20021;-71
2021/05/01 08:01:36;;;;;;;26.48;10.80;;;11.10;99.90;;;;;;5060092;28;20037;-70
2021/05/01 08:04:03;;;;;;;12.73;9.15;;;11.40;99.90;;;;;;5070823;28;20043;-70
2021/05/01 08:06:29;;;;;;;15.27;7.82;;;11.50;99.90;;;;;;5059576;28;20432;-70
2021/05/01 08:08:55;;;;;;;12.75;6.68;;;11.50;99.90;;;;;;5063644;28;20056;-71
2021/05/01 08:11:22;;;;;;;14.05;7.60;;;11.70;99.90;;;;;;5064083;28;20029;-71
2021/05/01 08:13:48;;;;;;;11.18;7.13;;;11.90;99.90;;;;;;5064397;28;20033;-72
2021/05/01 08:16:14;;;;;;;15.40;7.63;;;12.00;99.90;;;;;;5055022;28;20036;-74
2021/05/01 08:18:40;;;;;;;12.52;7.63;;;11.90;99.90;;;;;;5055853;28;20159;-73
2021/05/01 08:21:06;;;;;;;16.23;9.43;;;12.00;99.90;;;;;;5068329;28;20103;-73
2021/05/01 08:23:33;;;;;;;14.38;9.13;;;12.10;99.90;;;;;;5057827;28;20024;-73
2021/05/01 08:26:04;;;;;;;14.00;8.90;;;12.20;99.90;;;;;;5062299;28;20037;-73
2021/05/01 08:28:29;;;;;;;16.55;9.30;;;12.40;99.90;;;;;;5062260;28;20024;-72
2021/05/01 08:30:55;;;;;;;10.63;7.40;;;12.40;99.90;;;;;;5058058;28;20027;-73
2021/05/01 08:33:21;;;;;;;11.38;7.38;;;12.20;99.90;;;;;;5064179;28;20485;-73
2021/05/01 08:35:47;;;;;;;10.80;6.88;;;12.30;99.90;;;;;;5060342;28;20541;-74
2021/05/01 08:38:13;;;;;;;11.38;6.60;;;12.60;99.90;;;;;;5057399;28;20082;-71
2021/05/01 08:40:39;;;;;;;9.23;6.55;;;12.80;99.90;;;;;;5063228;28;20041;-71
2021/05/01 08:43:05;;;;;;;9.65;7.68;;;12.80;99.90;;;;;;5070641;28;20039;-72
2021/05/01 08:45:32;;;;;;;9.85;6.90;;;13.00;99.90;;;;;;5049491;28;20115;-72
2021/05/01 08:48:00;;;;;;;11.48;7.40;;;13.30;99.90;;;;;;5064995;28;20612;-73
2021/05/01 08:50:26;;;;;;;10.45;5.93;;;13.50;99.90;;;;;;5064375;28;20358;-72
2021/05/01 08:52:55;;;;;;;7.97;6.50;;;13.30;99.40;;;;;;5072540;28;20016;-72
2021/05/01 08:55:22;;;;;;;10.60;6.45;;;13.00;99.90;;;;;;5065379;28;20520;-72
2021/05/01 08:57:48;;;;;;;11.52;6.40;;;12.90;99.90;;;;;;5066737;28;20064;-72
2021/05/01 09:00:14;;;;;;;10.77;6.63;;;13.10;99.90;;;;;;5063635;28;20036;-73
2021/05/01 09:02:41;;;;;;;14.90;6.90;;;13.30;99.90;;;;;;5060943;28;20052;-72
2021/05/01 09:05:09;;;;;;;10.77;6.82;;;13.50;99.90;;;;;;5066906;28;20024;-73
2021/05/01 09:07:39;;;;;;;7.93;6.15;;;13.90;99.30;;;;;;5068595;28;20056;-72
2021/05/01 09:10:06;;;;;;;12.48;6.95;;;14.00;98.50;;;;;;5051099;28;20028;-72
2021/05/01 09:12:35;;;;;;;12.98;7.32;;;14.10;98.80;;;;;;5065561;28;20122;-72
2021/05/01 09:15:03;;;;;;;9.35;6.70;;;14.40;97.90;;;;;;5065305;28;20029;-71
2021/05/01 09:17:30;;;;;;;11.38;5.22;;;14.60;99.40;;;;;;5068510;28;20025;-71
2021/05/01 09:20:07;;;;;;;8.27;6.10;;;14.70;97.40;;;;;;5051458;28;20055;-72
2021/05/01 09:22:34;;;;;;;9.68;6.95;;;14.90;96.00;;;;;;5073839;28;20064;-72
2021/05/01 09:25:07;;;;;;;11.27;6.20;;;14.70;95.00;;;;;;5062336;28;20025;-72
2021/05/01 09:27:34;;;;;;;11.73;7.22;;;14.40;96.20;;;;;;5042965;28;20052;-71
2021/05/01 09:30:16;;;;;;;10.57;7.40;;;14.10;96.30;;;;;;5072029;28;20024;-71
2021/05/01 09:32:41;;;;;;;12.02;7.50;;;13.90;96.60;;;;;;5060939;28;20016;-71
2021/05/01 09:35:08;;;;;;;9.65;6.85;;;13.90;97.30;;;;;;5066856;28;20081;-72
2021/05/01 09:37:34;;;;;;;13.13;7.20;;;13.70;97.20;;;;;;5060526;28;20016;-72
2021/05/01 09:40:00;;;;;;;9.25;7.25;;;13.60;97.40;;;;;;5072962;28;20106;-72
2021/05/01 09:42:29;;;;;;;9.90;7.00;;;13.80;98.00;;;;;;5070655;28;20037;-71
2021/05/01 09:45:26;;;;;;;10.25;6.65;;;13.70;97.30;;;;;;5059128;28;20028;-70
2021/05/01 09:47:54;;;;;;;8.90;7.10;;;14.00;97.00;;;;;;5060907;28;20581;-72
2021/05/01 09:50:24;;;;;;;8.35;6.50;;;14.40;98.20;;;;;;5062004;28;20025;-70
2021/05/01 09:53:10;;;;;;;6.90;5.55;;;14.70;95.50;;;;;;5071002;28;20032;-71
2021/05/01 09:55:45;;;;;;;6.57;5.18;;;15.20;95.10;;;;;;5066581;28;20024;-71
2021/05/01 09:58:25;;;;;;;6.63;5.90;;;15.10;95.20;;;;;;5043091;28;20109;-71
2021/05/01 10:00:52;;;;;;;6.95;5.53;;;14.80;94.70;;;;;;5063469;28;20032;-71
2021/05/01 10:03:28;;;;;;;5.60;5.07;;;14.50;94.40;;;;;;5070034;28;20089;-71
2021/05/01 10:06:00;;;;;;;6.20;5.15;;;14.20;95.10;;;;;;5067602;28;20053;-71
2021/05/01 10:08:31;;;;;;;10.05;5.82;;;14.10;95.50;;;;;;5065145;28;20136;-71
2021/05/01 10:11:06;;;;;;;8.73;4.70;;;13.90;94.80;;;;;;5063541;28;20592;-70
2021/05/01 10:13:35;;;;;;;8.80;5.75;;;14.30;95.30;;;;;;5065344;28;20033;-73
2021/05/01 10:16:07;;;;;;;7.03;5.40;;;14.70;94.90;;;;;;5061200;28;20029;-73
2021/05/01 10:18:33;;;;;;;5.35;4.85;;;15.10;94.60;;;;;;5067867;28;20035;-73
2021/05/01 10:20:59;;;;;;;6.68;5.57;;;15.40;93.60;;;;;;5063245;28;20024;-73
2021/05/01 10:23:25;;;;;;;6.03;4.95;;;14.90;93.60;;;;;;5065486;28;20047;-73
2021/05/01 10:25:50;;;;;;;9.20;5.40;;;14.70;93.50;;;;;;5064010;28;20037;-74
2021/05/01 10:28:18;;;;;;;6.95;5.05;;;14.40;93.60;;;;;;5070605;28;20037;-72
2021/05/01 10:30:53;;;;;;;7.47;5.15;;;14.20;94.60;;;;;;5069300;28;20028;-72
2021/05/01 10:33:30;;;;;;;6.25;5.20;;;14.10;94.70;;;;;;5059862;28;20052;-72
2021/05/01 10:36:23;;;;;;;10.65;5.18;;;14.30;95.40;;;;;;5064510;28;20023;-72
2021/05/01 10:39:10;;;;;;;8.00;5.60;;;14.70;94.60;;;;;;5060397;28;20073;-73
2021/05/01 10:41:38;;;;;;;7.35;5.35;;;15.10;94.50;;;;;;5075344;28;20124;-73
2021/05/01 10:44:07;;;;;;;5.68;4.47;;;15.50;95.00;;;;;;5070329;28;20473;-73
2021/05/01 10:46:41;;;;;;;4.63;4.22;;;15.70;91.50;;;;;;5067518;28;20073;-72
2021/05/01 10:49:10;;;;;;;5.65;4.55;;;15.50;93.30;;;;;;5059875;28;20155;-72
2021/05/01 10:51:46;;;;;;;6.40;4.90;;;15.80;91.80;;;;;;5060778;28;20028;-72
2021/05/01 10:54:18;;;;;;;6.53;4.55;;;15.90;90.60;;;;;;5067254;28;20012;-72
2021/05/01 10:56:55;;;;;;;5.15;4.47;;;16.20;91.30;;;;;;5043517;28;20028;-72
2021/05/01 10:59:23;;;;;;;6.97;4.85;;;16.20;90.90;;;;;;5057394;28;20053;-73
2021/05/01 11:01:52;;;;;;;7.03;4.72;;;15.90;90.90;;;;;;5061375;28;20174;-73
2021/05/01 11:04:25;;;;;;;5.65;4.90;;;15.50;90.70;;;;;;5059815;28;20058;-72
2021/05/01 11:07:06;;;;;;;6.07;4.60;;;15.20;91.80;;;;;;5069290;28;20025;-72
2021/05/01 11:09:43;;;;;;;10.00;5.30;;;15.10;91.20;;;;;;5070232;28;20064;-72
2021/05/01 11:12:12;;;;;;;7.57;5.43;;;14.90;92.40;;;;;;5068540;28;20025;-73
2021/05/01 11:14:47;;;;;;;6.03;5.30;;;14.80;92.10;;;;;;5071524;28;20016;-72
2021/05/01 11:17:30;;;;;;;7.97;5.45;;;14.80;91.60;;;;;;5063316;28;20495;-72
2021/05/01 11:20:08;;;;;;;8.00;5.10;;;14.70;92.00;;;;;;5065736;28;20060;-72
2021/05/01 11:22:39;;;;;;;9.75;5.47;;;14.70;92.30;;;;;;5070181;28;20117;-72
2021/05/01 11:25:08;;;;;;;7.28;5.30;;;14.70;92.30;;;;;;5070926;28;20029;-74
2021/05/01 11:27:35;;;;;;;7.72;4.70;;;14.70;92.30;;;;;;5069359;28;20484;-74
2021/05/01 11:30:00;;;;;;;9.30;5.03;;;15.00;93.40;;;;;;5069729;28;20025;-74
2021/05/01 11:32:27;;;;;;;7.57;5.45;;;15.10;93.10;;;;;;5063042;28;20025;-73
2021/05/01 11:35:06;;;;;;;8.63;5.88;;;15.10;92.10;;;;;;5067868;28;20033;-74
2021/05/01 11:37:43;;;;;;;11.85;4.78;;;14.90;93.50;;;;;;5060986;28;20116;-73
2021/05/01 11:40:11;;;;;;;6.20;4.90;;;14.90;92.50;;;;;;5067532;28;20063;-73
2021/05/01 11:42:39;;;;;;;9.45;4.97;;;14.80;92.50;;;;;;5066199;28;20032;-73
2021/05/01 11:45:40;;;;;;;6.82;4.68;;;14.70;92.90;;;;;;5067833;28;20020;-73
2021/05/01 11:48:10;;;;;;;8.73;4.95;;;14.80;92.40;;;;;;5056118;28;20048;-72
2021/05/01 11:50:38;;;;;;;5.47;4.50;;;14.80;91.60;;;;;;5067728;28;20043;-72
2021/05/01 11:53:28;;;;;;;10.07;4.53;;;14.80;91.70;;;;;;5061901;28;20029;-74
2021/05/01 11:56:01;;;;;;;5.80;4.97;;;14.90;92.60;;;;;;5062308;28;20076;-72
2021/05/01 11:58:33;;;;;;;7.25;4.97;;;15.00;92.30;;;;;;5071301;28;20100;-72
2021/05/01 12:01:22;;;;;;;7.82;5.18;;;15.00;91.10;;;;;;5070623;28;20449;-72
2021/05/01 12:04:02;;;;;;;5.05;4.55;;;15.10;91.30;;;;;;5064517;28;20061;-72
2021/05/01 12:06:38;;;;;;;5.82;5.10;;;15.50;90.70;;;;;;5061386;28;20028;-72
2021/05/01 12:09:23;;;;;;;6.03;4.88;;;15.80;89.90;;;;;;5064322;28;20024;-73
2021/05/01 12:11:49;;;;;;;7.18;5.25;;;15.60;89.30;;;;;;5067020;28;20021;-75
2021/05/01 12:14:18;;;;;;;5.90;4.70;;;15.50;89.10;;;;;;5070433;28;20031;-76
2021/05/01 12:16:45;;;;;;;9.43;4.57;;;15.20;89.50;;;;;;5066747;28;20461;-73
2021/05/01 12:19:41;;;;;;;9.75;5.13;;;15.00;90.00;;;;;;5062911;28;20025;-72
2021/05/01 12:22:23;;;;;;;4.85;4.25;;;14.90;90.30;;;;;;5035325;28;20107;-73
2021/05/01 12:24:49;;;;;;;6.45;4.63;;;14.80;90.60;;;;;;5066894;28;20481;-72
2021/05/01 12:27:48;;;;;;;6.20;4.90;;;14.80;89.70;;;;;;5068173;28;20061;-73
2021/05/01 12:30:43;;;;;;;9.13;4.28;;;14.60;90.30;;;;;;5065622;28;20947;-72
2021/05/01 12:33:28;;;;;;;5.22;4.53;;;14.30;88.40;;;;;;5065373;28;20624;-73
2021/05/01 12:36:07;;;;;;;6.10;4.72;;;14.20;90.10;;;;;;5073533;28;20024;-73
2021/05/01 12:38:38;;;;;;;8.88;4.47;;;14.20;90.00;;;;;;5066566;28;20542;-72
2021/05/01 12:41:07;;;;;;;6.00;4.82;;;14.10;90.40;;;;;;5067827;28;20032;-73
2021/05/01 12:43:32;;;;;;;9.18;5.25;;;14.10;90.80;;;;;;5065213;28;20041;-72
2021/05/01 12:45:59;;;;;;;7.82;5.07;;;14.10;90.90;;;;;;5061018;28;20028;-72